sensor_id;sensor_type;location;lat;lon;timestamp;P1;durP1;ratioP1;P2;durP2;ratioP2
45970;SDS011;31681;48.982;8.394;2023-02-01T00:00:31;9.57;;;5.13;;
45970;SDS011;31681;48.982;8.394;2023-02-01T00:02:58;10.43;;;4.63;;
45970;SDS011;31681;48.982;8.394;2023-02-01T00:05:23;8.40;;;4.83;;
45970;SDS011;31681;48.982;8.394;2023-02-01T00:07:49;7.43;;;4.90;;
45970;SDS011;31681;48.982;8.394;2023-02-01T00:10:14;9.53;;;5.33;;
45970;SDS011;31681;48.982;8.394;2023-02-01T00:12:40;8.57;;;5.37;;
45970;SDS011;31681;48.982;8.394;2023-02-01T00:15:05;8.63;;;4.93;;
45970;SDS011;31681;48.982;8.394;2023-02-01T00:17:31;7.77;;;5.33;;
45970;SDS011;31681;48.982;8.394;2023-02-01T00:19:56;14.27;;;4.80;;
45970;SDS011;31681;48.982;8.394;2023-02-01T00:22:22;6.70;;;4.37;;
45970;SDS011;31681;48.982;8.394;2023-02-01T00:24:47;10.47;;;5.03;;
45970;SDS011;31681;48.982;8.394;2023-02-01T00:27:12;7.60;;;4.30;;
45970;SDS011;31681;48.982;8.394;2023-02-01T00:29:43;7.70;;;4.33;;
45970;SDS011;31681;48.982;8.394;2023-02-01T00:32:08;7.60;;;4.53;;
45970;SDS011;31681;48.982;8.394;2023-02-01T00:34:33;6.10;;;3.80;;
45970;SDS011;31681;48.982;8.394;2023-02-01T00:36:59;9.63;;;4.20;;
45970;SDS011;31681;48.982;8.394;2023-02-01T00:39:25;8.00;;;4.30;;
45970;SDS011;31681;48.982;8.394;2023-02-01T00:41:50;6.87;;;4.40;;
45970;SDS011;31681;48.982;8.394;2023-02-01T00:44:16;6.27;;;3.77;;
45970;SDS011;31681;48.982;8.394;2023-02-01T00:46:41;7.30;;;3.93;;
45970;SDS011;31681;48.982;8.394;2023-02-01T00:49:07;7.03;;;4.30;;
45970;SDS011;31681;48.982;8.394;2023-02-01T00:51:34;7.60;;;4.43;;
45970;SDS011;31681;48.982;8.394;2023-02-01T00:53:59;8.27;;;4.20;;
45970;SDS011;31681;48.982;8.394;2023-02-01T00:56:25;8.40;;;3.83;;
45970;SDS011;31681;48.982;8.394;2023-02-01T00:58:52;8.33;;;4.03;;
45970;SDS011;31681;48.982;8.394;2023-02-01T01:01:20;7.67;;;4.10;;
45970;SDS011;31681;48.982;8.394;2023-02-01T01:03:47;8.53;;;4.20;;
45970;SDS011;31681;48.982;8.394;2023-02-01T01:06:17;5.80;;;3.73;;
45970;SDS011;31681;48.982;8.394;2023-02-01T01:08:44;4.70;;;3.70;;
45970;SDS011;31681;48.982;8.394;2023-02-01T01:11:17;3.83;;;3.03;;
45970;SDS011;31681;48.982;8.394;2023-02-01T01:13:43;6.93;;;3.33;;
45970;SDS011;31681;48.982;8.394;2023-02-01T01:16:09;6.30;;;3.40;;
45970;SDS011;31681;48.982;8.394;2023-02-01T01:18:35;4.80;;;3.27;;
45970;SDS011;31681;48.982;8.394;2023-02-01T01:21:00;6.63;;;3.80;;
45970;SDS011;31681;48.982;8.394;2023-02-01T01:23:26;6.97;;;3.97;;
45970;SDS011;31681;48.982;8.394;2023-02-01T01:25:51;11.47;;;3.80;;
45970;SDS011;31681;48.982;8.394;2023-02-01T01:28:17;6.90;;;3.70;;
45970;SDS011;31681;48.982;8.394;2023-02-01T01:30:42;8.20;;;3.40;;
45970;SDS011;31681;48.982;8.394;2023-02-01T01:33:08;7.07;;;3.30;;
45970;SDS011;31681;48.982;8.394;2023-02-01T01:35:33;5.80;;;3.47;;
45970;SDS011;31681;48.982;8.394;2023-02-01T01:37:59;5.27;;;3.40;;
45970;SDS011;31681;48.982;8.394;2023-02-01T01:40:25;4.80;;;3.13;;
45970;SDS011;31681;48.982;8.394;2023-02-01T01:42:51;6.03;;;4.10;;
45970;SDS011;31681;48.982;8.394;2023-02-01T01:45:24;4.27;;;3.17;;
45970;SDS011;31681;48.982;8.394;2023-02-01T01:47:54;4.67;;;3.13;;
45970;SDS011;31681;48.982;8.394;2023-02-01T01:50:23;5.17;;;3.60;;
45970;SDS011;31681;48.982;8.394;2023-02-01T01:52:50;3.83;;;2.77;;
45970;SDS011;31681;48.982;8.394;2023-02-01T01:55:17;5.07;;;3.33;;
45970;SDS011;31681;48.982;8.394;2023-02-01T01:57:44;3.63;;;3.13;;
45970;SDS011;31681;48.982;8.394;2023-02-01T02:00:13;4.90;;;3.70;;
45970;SDS011;31681;48.982;8.394;2023-02-01T02:02:39;6.00;;;3.30;;
45970;SDS011;31681;48.982;8.394;2023-02-01T02:05:05;5.27;;;3.67;;
45970;SDS011;31681;48.982;8.394;2023-02-01T02:07:35;3.87;;;3.03;;
45970;SDS011;31681;48.982;8.394;2023-02-01T02:10:03;5.83;;;3.30;;
45970;SDS011;31681;48.982;8.394;2023-02-01T02:12:31;6.30;;;3.20;;
45970;SDS011;31681;48.982;8.394;2023-02-01T02:14:56;5.83;;;3.97;;
45970;SDS011;31681;48.982;8.394;2023-02-01T02:35:59;7.87;;;3.33;;
45970;SDS011;31681;48.982;8.394;2023-02-01T02:43:25;4.93;;;3.20;;
45970;SDS011;31681;48.982;8.394;2023-02-01T02:46:16;6.37;;;3.67;;
45970;SDS011;31681;48.982;8.394;2023-02-01T02:54:21;5.30;;;2.97;;
45970;SDS011;31681;48.982;8.394;2023-02-01T02:57:07;4.23;;;3.53;;
45970;SDS011;31681;48.982;8.394;2023-02-01T02:59:52;4.83;;;3.10;;
45970;SDS011;31681;48.982;8.394;2023-02-01T03:02:36;4.47;;;3.10;;
45970;SDS011;31681;48.982;8.394;2023-02-01T03:05:20;5.27;;;3.40;;
45970;SDS011;31681;48.982;8.394;2023-02-01T03:12:59;5.30;;;3.43;;
45970;SDS011;31681;48.982;8.394;2023-02-01T03:15:38;3.53;;;2.97;;
45970;SDS011;31681;48.982;8.394;2023-02-01T03:18:07;6.33;;;3.33;;
45970;SDS011;31681;48.982;8.394;2023-02-01T03:20:36;8.37;;;4.20;;
45970;SDS011;31681;48.982;8.394;2023-02-01T03:23:03;5.33;;;3.77;;
45970;SDS011;31681;48.982;8.394;2023-02-01T03:25:31;6.00;;;4.10;;
45970;SDS011;31681;48.982;8.394;2023-02-01T03:28:02;6.10;;;4.30;;
45970;SDS011;31681;48.982;8.394;2023-02-01T03:30:34;6.77;;;4.40;;
45970;SDS011;31681;48.982;8.394;2023-02-01T03:33:02;5.27;;;3.90;;
45970;SDS011;31681;48.982;8.394;2023-02-01T03:35:34;5.30;;;3.97;;
45970;SDS011;31681;48.982;8.394;2023-02-01T03:38:08;8.20;;;4.90;;
45970;SDS011;31681;48.982;8.394;2023-02-01T03:40:37;6.10;;;4.07;;
45970;SDS011;31681;48.982;8.394;2023-02-01T03:43:05;6.37;;;4.57;;
45970;SDS011;31681;48.982;8.394;2023-02-01T03:45:36;6.80;;;4.37;;
45970;SDS011;31681;48.982;8.394;2023-02-01T03:48:05;5.00;;;3.50;;
45970;SDS011;31681;48.982;8.394;2023-02-01T03:50:33;6.33;;;3.90;;
45970;SDS011;31681;48.982;8.394;2023-02-01T03:53:08;5.20;;;3.40;;
45970;SDS011;31681;48.982;8.394;2023-02-01T03:55:34;5.70;;;3.47;;
45970;SDS011;31681;48.982;8.394;2023-02-01T04:00:29;4.57;;;3.30;;
45970;SDS011;31681;48.982;8.394;2023-02-01T04:02:56;6.63;;;3.77;;
45970;SDS011;31681;48.982;8.394;2023-02-01T04:05:21;4.57;;;3.40;;
45970;SDS011;31681;48.982;8.394;2023-02-01T04:07:55;6.13;;;3.20;;
45970;SDS011;31681;48.982;8.394;2023-02-01T04:10:21;7.33;;;3.60;;
45970;SDS011;31681;48.982;8.394;2023-02-01T04:12:46;7.83;;;3.97;;
45970;SDS011;31681;48.982;8.394;2023-02-01T04:15:12;4.90;;;3.10;;
45970;SDS011;31681;48.982;8.394;2023-02-01T04:17:37;5.83;;;3.57;;
45970;SDS011;31681;48.982;8.394;2023-02-01T04:20:02;5.70;;;4.10;;
45970;SDS011;31681;48.982;8.394;2023-02-01T04:22:30;6.17;;;3.97;;
45970;SDS011;31681;48.982;8.394;2023-02-01T04:24:55;5.07;;;3.20;;
45970;SDS011;31681;48.982;8.394;2023-02-01T04:27:20;6.53;;;3.50;;
45970;SDS011;31681;48.982;8.394;2023-02-01T04:29:46;7.13;;;3.13;;
45970;SDS011;31681;48.982;8.394;2023-02-01T04:32:12;5.80;;;3.33;;
45970;SDS011;31681;48.982;8.394;2023-02-01T04:34:37;7.67;;;3.77;;
45970;SDS011;31681;48.982;8.394;2023-02-01T04:37:02;5.30;;;3.80;;
45970;SDS011;31681;48.982;8.394;2023-02-01T04:39:28;6.80;;;3.43;;
45970;SDS011;31681;48.982;8.394;2023-02-01T04:41:53;6.00;;;3.50;;
45970;SDS011;31681;48.982;8.394;2023-02-01T04:44:19;6.53;;;3.30;;
45970;SDS011;31681;48.982;8.394;2023-02-01T04:46:45;5.90;;;3.20;;
45970;SDS011;31681;48.982;8.394;2023-02-01T04:49:10;6.50;;;2.97;;
45970;SDS011;31681;48.982;8.394;2023-02-01T04:51:36;4.43;;;3.17;;
45970;SDS011;31681;48.982;8.394;2023-02-01T04:54:02;6.20;;;2.90;;
45970;SDS011;31681;48.982;8.394;2023-02-01T04:56:27;4.27;;;3.00;;
45970;SDS011;31681;48.982;8.394;2023-02-01T04:58:53;7.67;;;3.23;;
45970;SDS011;31681;48.982;8.394;2023-02-01T05:01:18;4.23;;;3.00;;
45970;SDS011;31681;48.982;8.394;2023-02-01T05:03:43;8.03;;;3.80;;
45970;SDS011;31681;48.982;8.394;2023-02-01T05:06:09;4.90;;;3.20;;
45970;SDS011;31681;48.982;8.394;2023-02-01T05:08:34;5.73;;;3.73;;
45970;SDS011;31681;48.982;8.394;2023-02-01T05:11:00;5.10;;;2.87;;
45970;SDS011;31681;48.982;8.394;2023-02-01T05:13:27;5.73;;;3.43;;
45970;SDS011;31681;48.982;8.394;2023-02-01T05:16:11;6.67;;;3.40;;
45970;SDS011;31681;48.982;8.394;2023-02-01T05:18:37;4.27;;;2.63;;
45970;SDS011;31681;48.982;8.394;2023-02-01T05:21:02;6.03;;;3.63;;
45970;SDS011;31681;48.982;8.394;2023-02-01T05:23:27;8.50;;;3.40;;
45970;SDS011;31681;48.982;8.394;2023-02-01T05:25:57;5.87;;;3.93;;
45970;SDS011;31681;48.982;8.394;2023-02-01T05:28:23;6.23;;;3.93;;
45970;SDS011;31681;48.982;8.394;2023-02-01T05:30:48;4.87;;;3.33;;
45970;SDS011;31681;48.982;8.394;2023-02-01T05:33:14;6.03;;;3.57;;
45970;SDS011;31681;48.982;8.394;2023-02-01T05:35:39;8.57;;;3.80;;
45970;SDS011;31681;48.982;8.394;2023-02-01T05:38:04;4.97;;;3.60;;
45970;SDS011;31681;48.982;8.394;2023-02-01T05:40:30;6.30;;;3.40;;
45970;SDS011;31681;48.982;8.394;2023-02-01T05:42:55;5.03;;;3.40;;
45970;SDS011;31681;48.982;8.394;2023-02-01T05:45:20;7.73;;;3.50;;
45970;SDS011;31681;48.982;8.394;2023-02-01T05:50:15;5.53;;;3.47;;
45970;SDS011;31681;48.982;8.394;2023-02-01T05:52:41;5.37;;;3.77;;
45970;SDS011;31681;48.982;8.394;2023-02-01T05:55:07;6.70;;;3.17;;
45970;SDS011;31681;48.982;8.394;2023-02-01T05:57:32;5.07;;;3.00;;
45970;SDS011;31681;48.982;8.394;2023-02-01T05:59:57;5.77;;;3.50;;
45970;SDS011;31681;48.982;8.394;2023-02-01T06:02:23;6.23;;;4.13;;
45970;SDS011;31681;48.982;8.394;2023-02-01T06:04:49;4.70;;;3.20;;
45970;SDS011;31681;48.982;8.394;2023-02-01T06:07:14;6.70;;;3.90;;
45970;SDS011;31681;48.982;8.394;2023-02-01T06:09:40;6.07;;;3.07;;
45970;SDS011;31681;48.982;8.394;2023-02-01T06:12:05;5.53;;;3.20;;
45970;SDS011;31681;48.982;8.394;2023-02-01T06:14:31;6.43;;;3.77;;
45970;SDS011;31681;48.982;8.394;2023-02-01T06:16:56;4.53;;;2.87;;
45970;SDS011;31681;48.982;8.394;2023-02-01T06:19:22;6.00;;;3.30;;
45970;SDS011;31681;48.982;8.394;2023-02-01T06:21:47;5.07;;;3.37;;
45970;SDS011;31681;48.982;8.394;2023-02-01T06:24:13;4.93;;;3.53;;
45970;SDS011;31681;48.982;8.394;2023-02-01T06:26:38;5.37;;;3.87;;
45970;SDS011;31681;48.982;8.394;2023-02-01T06:29:05;5.50;;;3.73;;
45970;SDS011;31681;48.982;8.394;2023-02-01T06:31:31;5.73;;;4.03;;
45970;SDS011;31681;48.982;8.394;2023-02-01T06:33:57;3.73;;;2.40;;
45970;SDS011;31681;48.982;8.394;2023-02-01T06:36:22;5.87;;;3.30;;
45970;SDS011;31681;48.982;8.394;2023-02-01T06:38:48;5.93;;;3.40;;
45970;SDS011;31681;48.982;8.394;2023-02-01T06:41:13;4.37;;;3.20;;
45970;SDS011;31681;48.982;8.394;2023-02-01T06:43:39;4.33;;;3.00;;
45970;SDS011;31681;48.982;8.394;2023-02-01T06:46:05;5.03;;;2.70;;
45970;SDS011;31681;48.982;8.394;2023-02-01T06:48:31;5.80;;;3.10;;
45970;SDS011;31681;48.982;8.394;2023-02-01T06:50:57;5.10;;;2.87;;
45970;SDS011;31681;48.982;8.394;2023-02-01T06:53:22;4.53;;;3.30;;
45970;SDS011;31681;48.982;8.394;2023-02-01T06:55:54;5.97;;;3.00;;
45970;SDS011;31681;48.982;8.394;2023-02-01T06:58:20;4.00;;;2.67;;
45970;SDS011;31681;48.982;8.394;2023-02-01T07:00:46;8.10;;;3.30;;
45970;SDS011;31681;48.982;8.394;2023-02-01T07:03:11;4.70;;;3.23;;
45970;SDS011;31681;48.982;8.394;2023-02-01T07:05:36;5.43;;;2.90;;
45970;SDS011;31681;48.982;8.394;2023-02-01T07:08:02;5.37;;;3.30;;
45970;SDS011;31681;48.982;8.394;2023-02-01T07:10:27;6.47;;;2.70;;
45970;SDS011;31681;48.982;8.394;2023-02-01T07:12:55;8.90;;;3.60;;
45970;SDS011;31681;48.982;8.394;2023-02-01T07:15:21;6.87;;;3.27;;
45970;SDS011;31681;48.982;8.394;2023-02-01T07:17:46;7.73;;;3.43;;
45970;SDS011;31681;48.982;8.394;2023-02-01T07:20:12;7.70;;;3.60;;
45970;SDS011;31681;48.982;8.394;2023-02-01T07:22:37;7.80;;;3.40;;
45970;SDS011;31681;48.982;8.394;2023-02-01T07:25:03;6.30;;;3.50;;
45970;SDS011;31681;48.982;8.394;2023-02-01T07:27:28;6.50;;;4.13;;
45970;SDS011;31681;48.982;8.394;2023-02-01T07:29:54;7.93;;;3.77;;
45970;SDS011;31681;48.982;8.394;2023-02-01T07:32:20;10.57;;;4.83;;
45970;SDS011;31681;48.982;8.394;2023-02-01T07:34:46;5.77;;;3.30;;
45970;SDS011;31681;48.982;8.394;2023-02-01T07:37:11;6.00;;;3.60;;
45970;SDS011;31681;48.982;8.394;2023-02-01T07:39:37;6.97;;;3.70;;
45970;SDS011;31681;48.982;8.394;2023-02-01T07:42:02;7.30;;;3.77;;
45970;SDS011;31681;48.982;8.394;2023-02-01T07:44:28;5.77;;;3.17;;
45970;SDS011;31681;48.982;8.394;2023-02-01T07:46:53;5.43;;;2.90;;
45970;SDS011;31681;48.982;8.394;2023-02-01T07:49:18;4.27;;;3.13;;
45970;SDS011;31681;48.982;8.394;2023-02-01T07:51:44;5.80;;;3.20;;
45970;SDS011;31681;48.982;8.394;2023-02-01T07:54:09;4.87;;;2.97;;
45970;SDS011;31681;48.982;8.394;2023-02-01T07:56:35;6.23;;;3.30;;
45970;SDS011;31681;48.982;8.394;2023-02-01T07:59:00;5.60;;;3.40;;
45970;SDS011;31681;48.982;8.394;2023-02-01T08:01:27;6.03;;;3.23;;
45970;SDS011;31681;48.982;8.394;2023-02-01T08:03:57;5.87;;;2.87;;
45970;SDS011;31681;48.982;8.394;2023-02-01T08:06:24;6.23;;;3.13;;
45970;SDS011;31681;48.982;8.394;2023-02-01T08:08:50;6.27;;;2.97;;
45970;SDS011;31681;48.982;8.394;2023-02-01T08:11:16;4.37;;;2.57;;
45970;SDS011;31681;48.982;8.394;2023-02-01T08:13:41;5.23;;;2.40;;
45970;SDS011;31681;48.982;8.394;2023-02-01T08:16:08;4.90;;;2.63;;
45970;SDS011;31681;48.982;8.394;2023-02-01T08:18:34;3.30;;;2.47;;
45970;SDS011;31681;48.982;8.394;2023-02-01T08:21:07;6.70;;;2.60;;
45970;SDS011;31681;48.982;8.394;2023-02-01T08:23:34;4.53;;;2.93;;
45970;SDS011;31681;48.982;8.394;2023-02-01T08:26:13;5.07;;;2.73;;
45970;SDS011;31681;48.982;8.394;2023-02-01T08:28:40;6.60;;;2.50;;
45970;SDS011;31681;48.982;8.394;2023-02-01T08:31:07;4.43;;;2.70;;
45970;SDS011;31681;48.982;8.394;2023-02-01T08:33:32;6.33;;;3.00;;
45970;SDS011;31681;48.982;8.394;2023-02-01T08:35:59;4.63;;;3.10;;
45970;SDS011;31681;48.982;8.394;2023-02-01T08:38:25;3.30;;;2.20;;
45970;SDS011;31681;48.982;8.394;2023-02-01T08:40:50;6.17;;;2.70;;
45970;SDS011;31681;48.982;8.394;2023-02-01T08:43:16;3.87;;;2.43;;
45970;SDS011;31681;48.982;8.394;2023-02-01T08:45:41;5.70;;;2.70;;
45970;SDS011;31681;48.982;8.394;2023-02-01T08:48:06;6.60;;;3.00;;
45970;SDS011;31681;48.982;8.394;2023-02-01T08:50:32;4.37;;;2.80;;
45970;SDS011;31681;48.982;8.394;2023-02-01T08:52:57;6.50;;;2.90;;
45970;SDS011;31681;48.982;8.394;2023-02-01T08:55:23;4.27;;;2.90;;
45970;SDS011;31681;48.982;8.394;2023-02-01T08:57:48;6.80;;;2.90;;
45970;SDS011;31681;48.982;8.394;2023-02-01T09:00:14;8.90;;;3.10;;
45970;SDS011;31681;48.982;8.394;2023-02-01T09:02:40;6.63;;;3.10;;
45970;SDS011;31681;48.982;8.394;2023-02-01T09:05:06;8.13;;;3.17;;
45970;SDS011;31681;48.982;8.394;2023-02-01T09:07:32;3.57;;;2.70;;
45970;SDS011;31681;48.982;8.394;2023-02-01T09:09:57;8.47;;;2.90;;
45970;SDS011;31681;48.982;8.394;2023-02-01T09:12:26;5.80;;;2.57;;
45970;SDS011;31681;48.982;8.394;2023-02-01T09:14:52;4.10;;;2.60;;
45970;SDS011;31681;48.982;8.394;2023-02-01T09:17:17;6.47;;;2.63;;
45970;SDS011;31681;48.982;8.394;2023-02-01T09:19:43;7.03;;;2.37;;
45970;SDS011;31681;48.982;8.394;2023-02-01T09:22:08;4.07;;;2.53;;
45970;SDS011;31681;48.982;8.394;2023-02-01T09:24:34;7.87;;;2.60;;
45970;SDS011;31681;48.982;8.394;2023-02-01T09:26:59;4.77;;;2.60;;
45970;SDS011;31681;48.982;8.394;2023-02-01T09:29:24;8.33;;;2.30;;
45970;SDS011;31681;48.982;8.394;2023-02-01T09:31:50;10.23;;;2.87;;
45970;SDS011;31681;48.982;8.394;2023-02-01T09:34:15;4.80;;;2.37;;
45970;SDS011;31681;48.982;8.394;2023-02-01T09:36:41;4.40;;;2.47;;
45970;SDS011;31681;48.982;8.394;2023-02-01T09:39:06;8.17;;;2.50;;
45970;SDS011;31681;48.982;8.394;2023-02-01T09:47:00;4.00;;;2.53;;
45970;SDS011;31681;48.982;8.394;2023-02-01T09:49:33;4.90;;;2.30;;
45970;SDS011;31681;48.982;8.394;2023-02-01T09:52:02;7.70;;;2.40;;
45970;SDS011;31681;48.982;8.394;2023-02-01T09:54:34;5.53;;;2.50;;
45970;SDS011;31681;48.982;8.394;2023-02-01T09:57:06;5.90;;;2.30;;
45970;SDS011;31681;48.982;8.394;2023-02-01T09:59:38;7.40;;;2.47;;
45970;SDS011;31681;48.982;8.394;2023-02-01T10:02:08;7.07;;;2.13;;
45970;SDS011;31681;48.982;8.394;2023-02-01T10:04:35;6.53;;;2.40;;
45970;SDS011;31681;48.982;8.394;2023-02-01T10:12:18;4.47;;;2.50;;
45970;SDS011;31681;48.982;8.394;2023-02-01T10:17:25;6.73;;;2.53;;
45970;SDS011;31681;48.982;8.394;2023-02-01T10:24:56;4.27;;;2.50;;
45970;SDS011;31681;48.982;8.394;2023-02-01T10:27:27;6.37;;;2.60;;
45970;SDS011;31681;48.982;8.394;2023-02-01T10:29:56;6.63;;;2.43;;
45970;SDS011;31681;48.982;8.394;2023-02-01T10:32:24;7.07;;;2.63;;
45970;SDS011;31681;48.982;8.394;2023-02-01T10:34:55;5.60;;;2.80;;
45970;SDS011;31681;48.982;8.394;2023-02-01T10:39:52;3.40;;;1.80;;
45970;SDS011;31681;48.982;8.394;2023-02-01T10:42:19;6.40;;;2.50;;
45970;SDS011;31681;48.982;8.394;2023-02-01T10:44:45;9.33;;;2.60;;
45970;SDS011;31681;48.982;8.394;2023-02-01T10:47:13;5.13;;;2.47;;
45970;SDS011;31681;48.982;8.394;2023-02-01T10:49:41;7.13;;;2.10;;
45970;SDS011;31681;48.982;8.394;2023-02-01T10:52:26;5.23;;;2.83;;
45970;SDS011;31681;48.982;8.394;2023-02-01T10:54:55;8.83;;;2.43;;
45970;SDS011;31681;48.982;8.394;2023-02-01T10:57:25;6.80;;;2.20;;
45970;SDS011;31681;48.982;8.394;2023-02-01T10:59:51;6.73;;;2.63;;
45970;SDS011;31681;48.982;8.394;2023-02-01T11:02:27;8.70;;;2.37;;
45970;SDS011;31681;48.982;8.394;2023-02-01T11:07:49;5.27;;;2.57;;
45970;SDS011;31681;48.982;8.394;2023-02-01T11:13:02;7.47;;;2.40;;
45970;SDS011;31681;48.982;8.394;2023-02-01T11:15:28;4.80;;;2.90;;
45970;SDS011;31681;48.982;8.394;2023-02-01T11:17:53;4.73;;;2.20;;
45970;SDS011;31681;48.982;8.394;2023-02-01T11:20:33;9.07;;;2.87;;
45970;SDS011;31681;48.982;8.394;2023-02-01T11:23:05;14.97;;;2.83;;
45970;SDS011;31681;48.982;8.394;2023-02-01T11:25:31;6.10;;;2.47;;
45970;SDS011;31681;48.982;8.394;2023-02-01T11:27:58;4.53;;;2.17;;
45970;SDS011;31681;48.982;8.394;2023-02-01T11:30:31;9.97;;;2.60;;
45970;SDS011;31681;48.982;8.394;2023-02-01T11:32:57;10.17;;;2.57;;
45970;SDS011;31681;48.982;8.394;2023-02-01T11:35:23;4.00;;;2.20;;
45970;SDS011;31681;48.982;8.394;2023-02-01T11:37:57;5.63;;;2.60;;
45970;SDS011;31681;48.982;8.394;2023-02-01T11:40:29;6.83;;;2.50;;
45970;SDS011;31681;48.982;8.394;2023-02-01T11:45:53;7.40;;;3.23;;
45970;SDS011;31681;48.982;8.394;2023-02-01T11:48:18;6.10;;;2.40;;
45970;SDS011;31681;48.982;8.394;2023-02-01T11:50:47;6.00;;;2.20;;
45970;SDS011;31681;48.982;8.394;2023-02-01T12:01:21;7.40;;;2.70;;
45970;SDS011;31681;48.982;8.394;2023-02-01T12:06:48;3.90;;;2.60;;
45970;SDS011;31681;48.982;8.394;2023-02-01T12:14:49;10.77;;;3.20;;
45970;SDS011;31681;48.982;8.394;2023-02-01T12:28:07;3.93;;;2.43;;
45970;SDS011;31681;48.982;8.394;2023-02-01T12:30:42;7.63;;;2.53;;
45970;SDS011;31681;48.982;8.394;2023-02-01T12:33:31;5.67;;;2.87;;
45970;SDS011;31681;48.982;8.394;2023-02-01T12:38:44;7.53;;;2.73;;
45970;SDS011;31681;48.982;8.394;2023-02-01T12:44:12;9.57;;;3.00;;
45970;SDS011;31681;48.982;8.394;2023-02-01T12:46:40;8.87;;;2.53;;
45970;SDS011;31681;48.982;8.394;2023-02-01T12:49:10;8.90;;;2.70;;
45970;SDS011;31681;48.982;8.394;2023-02-01T12:51:38;8.37;;;2.43;;
45970;SDS011;31681;48.982;8.394;2023-02-01T12:54:38;7.07;;;2.60;;
45970;SDS011;31681;48.982;8.394;2023-02-01T12:57:00;4.87;;;2.80;;
45970;SDS011;31681;48.982;8.394;2023-02-01T13:01:57;4.07;;;2.30;;
45970;SDS011;31681;48.982;8.394;2023-02-01T13:04:37;8.67;;;2.40;;
45970;SDS011;31681;48.982;8.394;2023-02-01T13:07:06;6.50;;;2.53;;
45970;SDS011;31681;48.982;8.394;2023-02-01T13:09:43;5.40;;;2.37;;
45970;SDS011;31681;48.982;8.394;2023-02-01T13:12:12;8.70;;;2.70;;
45970;SDS011;31681;48.982;8.394;2023-02-01T13:14:50;8.30;;;2.53;;
45970;SDS011;31681;48.982;8.394;2023-02-01T13:17:22;9.70;;;3.50;;
45970;SDS011;31681;48.982;8.394;2023-02-01T13:19:59;8.47;;;2.67;;
45970;SDS011;31681;48.982;8.394;2023-02-01T13:22:44;6.23;;;2.20;;
45970;SDS011;31681;48.982;8.394;2023-02-01T13:25:13;7.50;;;3.17;;
45970;SDS011;31681;48.982;8.394;2023-02-01T13:27:38;10.73;;;2.93;;
45970;SDS011;31681;48.982;8.394;2023-02-01T13:30:18;8.93;;;2.77;;
45970;SDS011;31681;48.982;8.394;2023-02-01T13:38:05;6.90;;;2.80;;
45970;SDS011;31681;48.982;8.394;2023-02-01T13:43:07;14.03;;;2.60;;
45970;SDS011;31681;48.982;8.394;2023-02-01T13:45:36;12.13;;;2.77;;
45970;SDS011;31681;48.982;8.394;2023-02-01T13:48:06;10.90;;;3.07;;
45970;SDS011;31681;48.982;8.394;2023-02-01T13:50:40;8.97;;;2.60;;
45970;SDS011;31681;48.982;8.394;2023-02-01T13:55:38;15.30;;;3.50;;
45970;SDS011;31681;48.982;8.394;2023-02-01T14:00:41;8.83;;;3.00;;
45970;SDS011;31681;48.982;8.394;2023-02-01T14:03:19;9.17;;;2.70;;
45970;SDS011;31681;48.982;8.394;2023-02-01T14:08:13;12.10;;;2.53;;
45970;SDS011;31681;48.982;8.394;2023-02-01T14:23:48;8.40;;;2.57;;
45970;SDS011;31681;48.982;8.394;2023-02-01T14:29:02;11.10;;;2.63;;
45970;SDS011;31681;48.982;8.394;2023-02-01T14:34:20;13.03;;;3.10;;
45970;SDS011;31681;48.982;8.394;2023-02-01T14:36:48;11.20;;;3.23;;
45970;SDS011;31681;48.982;8.394;2023-02-01T14:39:21;12.00;;;2.73;;
45970;SDS011;31681;48.982;8.394;2023-02-01T14:41:48;9.87;;;2.37;;
45970;SDS011;31681;48.982;8.394;2023-02-01T14:44:22;7.50;;;2.10;;
45970;SDS011;31681;48.982;8.394;2023-02-01T14:49:33;12.57;;;2.77;;
45970;SDS011;31681;48.982;8.394;2023-02-01T14:51:59;13.20;;;3.23;;
45970;SDS011;31681;48.982;8.394;2023-02-01T14:54:27;10.13;;;2.97;;
45970;SDS011;31681;48.982;8.394;2023-02-01T14:56:53;7.43;;;2.83;;
45970;SDS011;31681;48.982;8.394;2023-02-01T14:59:20;11.47;;;2.67;;
45970;SDS011;31681;48.982;8.394;2023-02-01T15:01:49;9.53;;;2.97;;
45970;SDS011;31681;48.982;8.394;2023-02-01T15:04:16;10.17;;;2.73;;
45970;SDS011;31681;48.982;8.394;2023-02-01T15:06:54;6.57;;;2.53;;
45970;SDS011;31681;48.982;8.394;2023-02-01T15:09:36;8.00;;;2.40;;
45970;SDS011;31681;48.982;8.394;2023-02-01T15:14:38;11.27;;;2.57;;
45970;SDS011;31681;48.982;8.394;2023-02-01T15:19:52;17.17;;;2.90;;
45970;SDS011;31681;48.982;8.394;2023-02-01T15:22:38;15.43;;;3.83;;
45970;SDS011;31681;48.982;8.394;2023-02-01T15:25:03;11.63;;;2.70;;
45970;SDS011;31681;48.982;8.394;2023-02-01T15:27:29;10.30;;;2.63;;
45970;SDS011;31681;48.982;8.394;2023-02-01T15:30:04;12.40;;;2.90;;
45970;SDS011;31681;48.982;8.394;2023-02-01T15:32:36;7.37;;;2.67;;
45970;SDS011;31681;48.982;8.394;2023-02-01T15:35:03;9.30;;;2.60;;
45970;SDS011;31681;48.982;8.394;2023-02-01T15:37:29;12.47;;;3.23;;
45970;SDS011;31681;48.982;8.394;2023-02-01T15:40:29;10.20;;;2.40;;
45970;SDS011;31681;48.982;8.394;2023-02-01T15:42:52;9.93;;;2.77;;
45970;SDS011;31681;48.982;8.394;2023-02-01T15:45:18;10.30;;;2.57;;
45970;SDS011;31681;48.982;8.394;2023-02-01T15:47:46;17.67;;;2.87;;
45970;SDS011;31681;48.982;8.394;2023-02-01T15:50:12;15.43;;;2.77;;
45970;SDS011;31681;48.982;8.394;2023-02-01T15:52:39;9.00;;;2.50;;
45970;SDS011;31681;48.982;8.394;2023-02-01T15:55:06;10.30;;;2.50;;
45970;SDS011;31681;48.982;8.394;2023-02-01T15:57:38;8.40;;;2.63;;
45970;SDS011;31681;48.982;8.394;2023-02-01T16:00:05;11.87;;;2.97;;
45970;SDS011;31681;48.982;8.394;2023-02-01T16:02:42;8.37;;;2.73;;
45970;SDS011;31681;48.982;8.394;2023-02-01T16:07:57;10.30;;;2.50;;
45970;SDS011;31681;48.982;8.394;2023-02-01T16:10:28;13.13;;;2.83;;
45970;SDS011;31681;48.982;8.394;2023-02-01T16:12:54;8.47;;;2.73;;
45970;SDS011;31681;48.982;8.394;2023-02-01T16:15:23;12.93;;;2.50;;
45970;SDS011;31681;48.982;8.394;2023-02-01T16:17:49;6.57;;;2.03;;
45970;SDS011;31681;48.982;8.394;2023-02-01T16:20:14;10.97;;;2.30;;
45970;SDS011;31681;48.982;8.394;2023-02-01T16:22:40;5.50;;;2.43;;
45970;SDS011;31681;48.982;8.394;2023-02-01T16:25:05;8.93;;;2.03;;
45970;SDS011;31681;48.982;8.394;2023-02-01T16:27:31;10.03;;;2.40;;
45970;SDS011;31681;48.982;8.394;2023-02-01T16:29:56;6.80;;;2.03;;
45970;SDS011;31681;48.982;8.394;2023-02-01T16:32:22;12.67;;;2.27;;
45970;SDS011;31681;48.982;8.394;2023-02-01T16:34:47;11.57;;;2.57;;
45970;SDS011;31681;48.982;8.394;2023-02-01T16:40:29;7.93;;;2.20;;
45970;SDS011;31681;48.982;8.394;2023-02-01T16:42:54;6.10;;;2.10;;
45970;SDS011;31681;48.982;8.394;2023-02-01T16:45:20;10.33;;;2.33;;
45970;SDS011;31681;48.982;8.394;2023-02-01T16:47:48;9.03;;;2.07;;
45970;SDS011;31681;48.982;8.394;2023-02-01T16:50:20;12.17;;;2.40;;
45970;SDS011;31681;48.982;8.394;2023-02-01T16:52:46;9.80;;;2.73;;
45970;SDS011;31681;48.982;8.394;2023-02-01T16:55:13;10.57;;;2.30;;
45970;SDS011;31681;48.982;8.394;2023-02-01T16:57:39;8.13;;;2.37;;
45970;SDS011;31681;48.982;8.394;2023-02-01T17:00:04;9.90;;;2.50;;
45970;SDS011;31681;48.982;8.394;2023-02-01T17:02:30;12.97;;;2.77;;
45970;SDS011;31681;48.982;8.394;2023-02-01T17:04:56;6.53;;;2.07;;
45970;SDS011;31681;48.982;8.394;2023-02-01T17:07:21;11.87;;;2.87;;
45970;SDS011;31681;48.982;8.394;2023-02-01T17:09:47;10.47;;;2.63;;
45970;SDS011;31681;48.982;8.394;2023-02-01T17:12:29;7.70;;;2.03;;
45970;SDS011;31681;48.982;8.394;2023-02-01T17:14:55;11.03;;;2.47;;
45970;SDS011;31681;48.982;8.394;2023-02-01T17:17:20;4.73;;;2.43;;
45970;SDS011;31681;48.982;8.394;2023-02-01T17:19:46;10.30;;;2.33;;
45970;SDS011;31681;48.982;8.394;2023-02-01T17:22:13;7.37;;;2.20;;